Time,TemperatureF,DewpointF,PressureIn,WindDirection,WindDirectionDegrees,WindSpeedMPH,WindSpeedGustMPH,Humidity,HourlyPrecipIn,Conditions,Clouds,dailyrainin,SoftwareType,DateUTC
2013-03-29 00:00:00,41.7,30.8,29.92,North,-999,1.6,-999.0,65,-99.99,,,-99.99,Acu-Link.com,2013-03-29 04:00:00,
2013-03-29 00:16:00,41.6,30.3,29.93,North,-999,1.6,-999.0,64,-99.99,,,-99.99,Acu-Link.com,2013-03-29 04:16:00,
2013-03-29 00:31:00,41.5,30.6,29.93,North,-999,3.2,-999.0,65,-99.99,,,-99.99,Acu-Link.com,2013-03-29 04:31:00,
2013-03-29 00:46:00,41.2,30.7,29.94,North,-999,1.6,-999.0,66,-99.99,,,-99.99,Acu-Link.com,2013-03-29 04:46:00,
2013-03-29 01:01:00,40.7,30.6,29.93,North,-999,1.6,-999.0,67,-99.99,,,-99.99,Acu-Link.com,2013-03-29 05:01:00,
2013-03-29 01:16:00,40.4,30.7,29.93,North,-999,1.6,-999.0,68,-99.99,,,-99.99,Acu-Link.com,2013-03-29 05:16:00,
2013-03-29 01:31:00,40.1,30.4,29.93,North,-999,1.6,-999.0,68,-99.99,,,-99.99,Acu-Link.com,2013-03-29 05:31:00,
2013-03-29 01:47:00,39.9,30.2,29.93,North,-999,1.6,-999.0,68,-99.99,,,-99.99,Acu-Link.com,2013-03-29 05:47:00,
2013-03-29 02:02:00,39.9,30.9,29.93,North,-999,1.6,-999.0,70,-99.99,,,-99.99,Acu-Link.com,2013-03-29 06:02:00,
2013-03-29 02:17:00,39.6,30.6,29.93,North,-999,1.6,-999.0,70,-99.99,,,-99.99,Acu-Link.com,2013-03-29 06:17:00,
2013-03-29 02:32:00,39.7,30.4,29.93,North,-999,3.2,-999.0,69,-99.99,,,-99.99,Acu-Link.com,2013-03-29 06:32:00,
2013-03-29 02:48:00,39.6,30.3,29.93,North,-999,1.6,-999.0,69,-99.99,,,-99.99,Acu-Link.com,2013-03-29 06:48:00,
2013-03-29 03:03:00,39.4,30.1,29.92,North,-999,3.2,-999.0,69,-99.99,,,-99.99,Acu-Link.com,2013-03-29 07:03:00,
2013-03-29 03:18:00,39.2,30.3,29.92,North,-999,1.6,-999.0,70,-99.99,,,-99.99,Acu-Link.com,2013-03-29 07:18:00,
2013-03-29 03:34:00,39.2,30.3,29.92,North,-999,1.6,-999.0,70,-99.99,,,-99.99,Acu-Link.com,2013-03-29 07:34:00,
2013-03-29 03:49:00,38.8,29.9,29.92,North,-999,1.6,-999.0,70,-99.99,,,-99.99,Acu-Link.com,2013-03-29 07:49:00,
2013-03-29 04:04:00,38.7,29.8,29.92,North,-999,1.6,-999.0,70,-99.99,,,-99.99,Acu-Link.com,2013-03-29 08:04:00,
2013-03-29 04:19:00,38.7,29.8,29.92,North,-999,1.6,-999.0,70,-99.99,,,-99.99,Acu-Link.com,2013-03-29 08:19:00,
2013-03-29 04:35:00,38.3,29.7,29.92,North,-999,1.6,-999.0,71,-99.99,,,-99.99,Acu-Link.com,2013-03-29 08:35:00,
2013-03-29 04:50:00,38.0,29.1,29.91,North,-999,1.6,-999.0,70,-99.99,,,-99.99,Acu-Link.com,2013-03-29 08:50:00,
2013-03-29 05:05:00,38.2,28.6,29.91,North,-999,1.6,-999.0,68,-99.99,,,-99.99,Acu-Link.com,2013-03-29 09:05:00,
2013-03-29 05:20:00,38.2,28.6,29.92,North,-999,1.6,-999.0,68,-99.99,,,-99.99,Acu-Link.com,2013-03-29 09:20:00,
2013-03-29 05:35:00,37.9,28.3,29.92,North,-999,4.8,-999.0,68,-99.99,,,-99.99,Acu-Link.com,2013-03-29 09:35:00,
2013-03-29 05:50:00,37.5,27.9,29.92,North,-999,3.2,-999.0,68,-99.99,,,-99.99,Acu-Link.com,2013-03-29 09:50:00,
2013-03-29 06:05:00,37.5,28.3,29.93,North,-999,1.6,-999.0,69,-99.99,,,-99.99,Acu-Link.com,2013-03-29 10:05:00,
2013-03-29 06:21:00,37.4,28.2,29.93,North,-999,4.8,-999.0,69,-99.99,,,-99.99,Acu-Link.com,2013-03-29 10:21:00,
2013-03-29 06:36:00,37.1,27.9,29.93,North,-999,1.6,-999.0,69,-99.99,,,-99.99,Acu-Link.com,2013-03-29 10:36:00,
2013-03-29 07:06:00,40.5,30.0,29.94,North,-999,1.6,-999.0,66,-99.99,,,-99.99,Acu-Link.com,2013-03-29 11:06:00,
2013-03-29 07:21:00,42.3,30.6,29.93,North,-999,3.2,-999.0,63,-99.99,,,-99.99,Acu-Link.com,2013-03-29 11:21:00,
2013-03-29 07:36:00,46.3,31.9,29.94,North,-999,1.6,-999.0,57,-99.99,,,-99.99,Acu-Link.com,2013-03-29 11:36:00,
2013-03-29 07:51:00,45.9,31.5,29.94,North,-999,1.6,-999.0,57,-99.99,,,-99.99,Acu-Link.com,2013-03-29 11:51:00,
2013-03-29 08:07:00,46.5,31.2,29.94,North,-999,1.6,-999.0,55,-99.99,,,-99.99,Acu-Link.com,2013-03-29 12:07:00,
2013-03-29 08:22:00,49.4,32.5,29.94,North,-999,3.2,-999.0,52,-99.99,,,-99.99,Acu-Link.com,2013-03-29 12:22:00,
2013-03-29 08:37:00,50.8,31.8,29.94,North,-999,3.2,-999.0,48,-99.99,,,-99.99,Acu-Link.com,2013-03-29 12:37:00,
2013-03-29 08:52:00,51.2,31.1,29.94,North,-999,3.2,-999.0,46,-99.99,,,-99.99,Acu-Link.com,2013-03-29 12:52:00,
2013-03-29 09:07:00,51.4,30.8,29.94,North,-999,4.8,-999.0,45,-99.99,,,-99.99,Acu-Link.com,2013-03-29 13:07:00,
2013-03-29 09:22:00,53.6,31.7,29.94,North,-999,3.2,-999.0,43,-99.99,,,-99.99,Acu-Link.com,2013-03-29 13:22:00,
2013-03-29 09:37:00,54.8,30.9,29.93,North,-999,3.2,-999.0,40,-99.99,,,-99.99,Acu-Link.com,2013-03-29 13:37:00,
2013-03-29 09:52:00,55.8,32.5,29.93,North,-999,1.6,-999.0,41,-99.99,,,-99.99,Acu-Link.com,2013-03-29 13:52:00,
2013-03-29 10:07:00,56.9,30.9,29.94,North,-999,1.6,-999.0,37,-99.99,,,-99.99,Acu-Link.com,2013-03-29 14:07:00,
2013-03-29 10:23:00,56.0,30.1,29.94,North,-999,3.2,-999.0,37,-99.99,,,-99.99,Acu-Link.com,2013-03-29 14:23:00,
2013-03-29 10:38:00,58.1,29.2,29.94,North,-999,1.6,-999.0,33,-99.99,,,-99.99,Acu-Link.com,2013-03-29 14:38:00,
2013-03-29 10:53:00,59.3,30.9,29.94,North,-999,3.2,-999.0,34,-99.99,,,-99.99,Acu-Link.com,2013-03-29 14:53:00,
2013-03-29 11:08:00,57.9,29.0,29.95,North,-999,3.2,-999.0,33,-99.99,,,-99.99,Acu-Link.com,2013-03-29 15:08:00,
2013-03-29 11:23:00,58.3,30.1,29.95,North,-999,1.6,-999.0,34,-99.99,,,-99.99,Acu-Link.com,2013-03-29 15:23:00,
2013-03-29 11:38:00,57.8,29.6,29.94,North,-999,1.6,-999.0,34,-99.99,,,-99.99,Acu-Link.com,2013-03-29 15:38:00,
2013-03-29 11:53:00,58.1,29.2,29.94,North,-999,3.2,-999.0,33,-99.99,,,-99.99,Acu-Link.com,2013-03-29 15:53:00,
2013-03-29 12:08:00,57.1,27.5,29.94,North,-999,6.4,-999.0,32,-99.99,,,-99.99,Acu-Link.com,2013-03-29 16:08:00,
2013-03-29 12:23:00,55.2,29.4,29.93,North,-999,6.4,-999.0,37,-99.99,,,-99.99,Acu-Link.com,2013-03-29 16:23:00,
2013-03-29 12:38:00,53.0,28.1,29.93,North,-999,3.2,-999.0,38,-99.99,,,-99.99,Acu-Link.com,2013-03-29 16:38:00,
2013-03-29 12:53:00,53.3,27.7,29.92,North,-999,4.8,-999.0,37,-99.99,,,-99.99,Acu-Link.com,2013-03-29 16:53:00,
2013-03-29 13:09:00,53.1,29.4,29.93,North,-999,1.6,-999.0,40,-99.99,,,-99.99,Acu-Link.com,2013-03-29 17:09:00,
2013-03-29 13:24:00,52.6,28.4,29.91,North,-999,3.2,-999.0,39,-99.99,,,-99.99,Acu-Link.com,2013-03-29 17:24:00,
2013-03-29 13:39:00,51.6,26.8,29.91,North,-999,6.4,-999.0,38,-99.99,,,-99.99,Acu-Link.com,2013-03-29 17:39:00,
2013-03-29 13:54:00,51.4,30.2,29.90,North,-999,4.8,-999.0,44,-99.99,,,-99.99,Acu-Link.com,2013-03-29 17:54:00,
2013-03-29 14:09:00,51.7,27.6,29.89,North,-999,8.0,-999.0,39,-99.99,,,-99.99,Acu-Link.com,2013-03-29 18:09:00,
2013-03-29 14:24:00,51.3,27.2,29.88,North,-999,9.6,-999.0,39,-99.99,,,-99.99,Acu-Link.com,2013-03-29 18:24:00,
2013-03-29 14:39:00,50.6,24.6,29.88,North,-999,9.6,-999.0,36,-99.99,,,-99.99,Acu-Link.com,2013-03-29 18:39:00,
2013-03-29 14:55:00,51.7,26.9,29.88,North,-999,4.8,-999.0,38,-99.99,,,-99.99,Acu-Link.com,2013-03-29 18:55:00,
2013-03-29 15:10:00,50.2,27.4,29.89,North,-999,4.8,-999.0,41,-99.99,,,-99.99,Acu-Link.com,2013-03-29 19:10:00,
2013-03-29 15:25:00,50.6,27.2,29.88,North,-999,3.2,-999.0,40,-99.99,,,-99.99,Acu-Link.com,2013-03-29 19:25:00,
2013-03-29 15:40:00,51.7,25.6,29.88,North,-999,1.6,-999.0,36,-99.99,,,-99.99,Acu-Link.com,2013-03-29 19:40:00,
2013-03-29 15:55:00,53.4,23.5,29.87,North,-999,1.6,-999.0,31,-99.99,,,-99.99,Acu-Link.com,2013-03-29 19:55:00,
2013-03-29 16:10:00,51.9,24.4,29.87,North,-999,1.6,-999.0,34,-99.99,,,-99.99,Acu-Link.com,2013-03-29 20:10:00,
2013-03-29 16:25:00,53.3,22.7,29.87,North,-999,3.2,-999.0,30,-99.99,,,-99.99,Acu-Link.com,2013-03-29 20:25:00,
2013-03-29 16:40:00,50.3,29.2,29.87,North,-999,1.6,-999.0,44,-99.99,,,-99.99,Acu-Link.com,2013-03-29 20:40:00,
2013-03-29 16:55:00,48.9,31.6,29.87,North,-999,1.6,-999.0,51,-99.99,,,-99.99,Acu-Link.com,2013-03-29 20:55:00,
2013-03-29 17:10:00,47.3,30.6,29.87,North,-999,4.8,-999.0,52,-99.99,,,-99.99,Acu-Link.com,2013-03-29 21:10:00,
2013-03-29 17:26:00,48.1,29.3,29.87,North,-999,1.6,-999.0,48,-99.99,,,-99.99,Acu-Link.com,2013-03-29 21:26:00,
2013-03-29 17:41:00,46.8,30.6,29.88,North,-999,8.0,-999.0,53,-99.99,,,-99.99,Acu-Link.com,2013-03-29 21:41:00,
2013-03-29 17:56:00,46.2,31.8,29.89,North,-999,9.6,-999.0,57,-99.99,,,-99.99,Acu-Link.com,2013-03-29 21:56:00,
2013-03-29 18:41:00,45.3,32.2,29.90,North,-999,4.8,-999.0,60,-99.99,,,-99.99,Acu-Link.com,2013-03-29 22:41:00,
2013-03-29 18:57:00,45.7,31.4,29.91,North,-999,3.2,-999.0,57,-99.99,,,-99.99,Acu-Link.com,2013-03-29 22:57:00,
2013-03-29 19:12:00,46.3,30.1,29.90,North,-999,6.4,-999.0,53,-99.99,,,-99.99,Acu-Link.com,2013-03-29 23:12:00,
2013-03-29 19:28:00,46.7,29.1,29.90,North,-999,4.8,-999.0,50,-99.99,,,-99.99,Acu-Link.com,2013-03-29 23:28:00,
2013-03-29 19:43:00,46.8,28.7,29.91,North,-999,4.8,-999.0,49,-99.99,,,-99.99,Acu-Link.com,2013-03-29 23:43:00,
2013-03-29 19:58:00,46.7,28.6,29.91,North,-999,3.2,-999.0,49,-99.99,,,-99.99,Acu-Link.com,2013-03-29 23:58:00,
2013-03-29 20:13:00,46.6,28.5,29.92,North,-999,3.2,-999.0,49,-99.99,,,-99.99,Acu-Link.com,2013-03-30 00:13:00,
2013-03-29 20:28:00,47.1,27.9,29.92,North,-999,1.6,-999.0,47,-99.99,,,-99.99,Acu-Link.com,2013-03-30 00:28:00,
2013-03-29 20:43:00,47.1,28.4,29.92,North,-999,3.2,-999.0,48,-99.99,,,-99.99,Acu-Link.com,2013-03-30 00:43:00,
2013-03-29 20:58:00,45.8,30.6,29.93,North,-999,3.2,-999.0,55,-99.99,,,-99.99,Acu-Link.com,2013-03-30 00:58:00,
2013-03-29 21:13:00,47.0,27.8,29.94,North,-999,3.2,-999.0,47,-99.99,,,-99.99,Acu-Link.com,2013-03-30 01:13:00,
2013-03-29 21:28:00,46.6,28.5,29.94,North,-999,3.2,-999.0,49,-99.99,,,-99.99,Acu-Link.com,2013-03-30 01:28:00,
2013-03-29 21:44:00,46.3,28.7,29.94,North,-999,1.6,-999.0,50,-99.99,,,-99.99,Acu-Link.com,2013-03-30 01:44:00,
2013-03-29 21:59:00,46.3,27.7,29.95,North,-999,8.0,-999.0,48,-99.99,,,-99.99,Acu-Link.com,2013-03-30 01:59:00,
2013-03-29 22:14:00,46.0,26.9,29.96,North,-999,4.8,-999.0,47,-99.99,,,-99.99,Acu-Link.com,2013-03-30 02:14:00,
2013-03-29 22:29:00,45.4,27.9,29.95,North,-999,3.2,-999.0,50,-99.99,,,-99.99,Acu-Link.com,2013-03-30 02:29:00,
2013-03-29 22:44:00,45.0,28.4,29.95,North,-999,3.2,-999.0,52,-99.99,,,-99.99,Acu-Link.com,2013-03-30 02:44:00,
2013-03-29 22:59:00,45.1,28.1,29.95,North,-999,0.0,-999.0,51,-99.99,,,-99.99,Acu-Link.com,2013-03-30 02:59:00,
2013-03-29 23:14:00,44.8,28.7,29.95,North,-999,1.6,-999.0,53,-99.99,,,-99.99,Acu-Link.com,2013-03-30 03:14:00,
2013-03-29 23:29:00,44.8,28.7,29.95,North,-999,1.6,-999.0,53,-99.99,,,-99.99,Acu-Link.com,2013-03-30 03:29:00,
2013-03-29 23:44:00,44.7,29.1,29.95,North,-999,3.2,-999.0,54,-99.99,,,-99.99,Acu-Link.com,2013-03-30 03:44:00,
2013-03-29 23:59:00,44.3,29.6,29.95,North,-999,1.6,-999.0,56,-99.99,,,-99.99,Acu-Link.com,2013-03-30 03:59:00,